sensor_id;sensor_type;location;lat;lon;timestamp;P1;durP1;ratioP1;P2;durP2;ratioP2
10633;SDS011;5365;51.640;8.106;2024-03-02T00:12:11;1.35;;;1.02;;
10633;SDS011;5365;51.640;8.106;2024-03-02T00:20:22;1.05;;;0.20;;
10633;SDS011;5365;51.640;8.106;2024-03-02T00:23:26;0.63;;;0.38;;
10633;SDS011;5365;51.640;8.106;2024-03-02T00:26:29;0.77;;;0.50;;
10633;SDS011;5365;51.640;8.106;2024-03-02T00:39:36;1.17;;;0.50;;
10633;SDS011;5365;51.640;8.106;2024-03-02T00:42:38;0.85;;;0.30;;
10633;SDS011;5365;51.640;8.106;2024-03-02T00:50:46;2.15;;;0.75;;
10633;SDS011;5365;51.640;8.106;2024-03-02T00:53:52;1.38;;;0.77;;
10633;SDS011;5365;51.640;8.106;2024-03-02T00:56:54;1.23;;;0.50;;
10633;SDS011;5365;51.640;8.106;2024-03-02T01:04:53;0.15;;;0.13;;
10633;SDS011;5365;51.640;8.106;2024-03-02T01:07:54;0.40;;;0.40;;
10633;SDS011;5365;51.640;8.106;2024-03-02T01:10:56;0.22;;;0.20;;
10633;SDS011;5365;51.640;8.106;2024-03-02T01:13:58;0.43;;;0.43;;
10633;SDS011;5365;51.640;8.106;2024-03-02T01:52:19;0.90;;;0.15;;
10633;SDS011;5365;51.640;8.106;2024-03-02T01:55:20;0.40;;;0.00;;
10633;SDS011;5365;51.640;8.106;2024-03-02T01:58:22;0.82;;;0.40;;
10633;SDS011;5365;51.640;8.106;2024-03-02T02:01:24;0.95;;;0.60;;
10633;SDS011;5365;51.640;8.106;2024-03-02T02:04:25;0.68;;;0.57;;
10633;SDS011;5365;51.640;8.106;2024-03-02T02:07:29;2.53;;;1.02;;
10633;SDS011;5365;51.640;8.106;2024-03-02T02:10:30;0.70;;;0.47;;
10633;SDS011;5365;51.640;8.106;2024-03-02T02:13:32;0.65;;;0.30;;
10633;SDS011;5365;51.640;8.106;2024-03-02T02:16:34;0.52;;;0.38;;
10633;SDS011;5365;51.640;8.106;2024-03-02T02:19:36;0.80;;;0.30;;
10633;SDS011;5365;51.640;8.106;2024-03-02T02:22:37;1.35;;;0.57;;
10633;SDS011;5365;51.640;8.106;2024-03-02T02:30:39;2.75;;;0.77;;
10633;SDS011;5365;51.640;8.106;2024-03-02T02:33:41;1.98;;;0.93;;
10633;SDS011;5365;51.640;8.106;2024-03-02T02:36:42;2.60;;;0.70;;
10633;SDS011;5365;51.640;8.106;2024-03-02T02:39:44;0.73;;;0.45;;
10633;SDS011;5365;51.640;8.106;2024-03-02T02:47:47;0.38;;;0.25;;
10633;SDS011;5365;51.640;8.106;2024-03-02T02:50:48;0.25;;;0.17;;
10633;SDS011;5365;51.640;8.106;2024-03-02T02:53:50;2.40;;;0.32;;
10633;SDS011;5365;51.640;8.106;2024-03-02T02:56:52;0.38;;;0.38;;
10633;SDS011;5365;51.640;8.106;2024-03-02T02:59:54;1.27;;;0.35;;
10633;SDS011;5365;51.640;8.106;2024-03-02T03:02:55;0.98;;;0.63;;
10633;SDS011;5365;51.640;8.106;2024-03-02T03:24:25;2.10;;;0.35;;
10633;SDS011;5365;51.640;8.106;2024-03-02T03:27:27;2.88;;;0.43;;
10633;SDS011;5365;51.640;8.106;2024-03-02T03:30:29;1.98;;;0.95;;
10633;SDS011;5365;51.640;8.106;2024-03-02T03:33:30;3.17;;;1.15;;
10633;SDS011;5365;51.640;8.106;2024-03-02T03:36:32;3.25;;;0.88;;
10633;SDS011;5365;51.640;8.106;2024-03-02T03:39:34;3.00;;;0.73;;
10633;SDS011;5365;51.640;8.106;2024-03-02T03:42:37;0.90;;;0.52;;
10633;SDS011;5365;51.640;8.106;2024-03-02T03:45:39;1.25;;;0.82;;
10633;SDS011;5365;51.640;8.106;2024-03-02T04:03:59;1.10;;;0.95;;
10633;SDS011;5365;51.640;8.106;2024-03-02T04:07:01;0.57;;;0.57;;
10633;SDS011;5365;51.640;8.106;2024-03-02T04:10:03;3.15;;;0.88;;
10633;SDS011;5365;51.640;8.106;2024-03-02T04:13:05;1.95;;;1.02;;
10633;SDS011;5365;51.640;8.106;2024-03-02T04:16:06;1.55;;;1.00;;
10633;SDS011;5365;51.640;8.106;2024-03-02T06:39:23;0.10;;;0.10;;
10633;SDS011;5365;51.640;8.106;2024-03-02T06:47:00;0.50;;;0.30;;
10633;SDS011;5365;51.640;8.106;2024-03-02T06:50:01;1.58;;;1.05;;
10633;SDS011;5365;51.640;8.106;2024-03-02T06:53:03;1.52;;;0.80;;
10633;SDS011;5365;51.640;8.106;2024-03-02T06:56:06;0.38;;;0.32;;
10633;SDS011;5365;51.640;8.106;2024-03-02T06:59:08;1.23;;;0.85;;
10633;SDS011;5365;51.640;8.106;2024-03-02T07:02:09;1.63;;;0.45;;
10633;SDS011;5365;51.640;8.106;2024-03-02T07:10:05;0.98;;;0.15;;
10633;SDS011;5365;51.640;8.106;2024-03-02T07:13:08;0.85;;;0.28;;
10633;SDS011;5365;51.640;8.106;2024-03-02T07:21:16;0.47;;;0.38;;
10633;SDS011;5365;51.640;8.106;2024-03-02T07:24:18;2.08;;;0.93;;
10633;SDS011;5365;51.640;8.106;2024-03-02T07:27:19;0.47;;;0.40;;
10633;SDS011;5365;51.640;8.106;2024-03-02T07:30:21;1.23;;;0.90;;
10633;SDS011;5365;51.640;8.106;2024-03-02T07:33:23;1.13;;;0.88;;
10633;SDS011;5365;51.640;8.106;2024-03-02T07:51:39;1.08;;;0.85;;
10633;SDS011;5365;51.640;8.106;2024-03-02T07:54:41;0.98;;;0.32;;
10633;SDS011;5365;51.640;8.106;2024-03-02T08:02:50;0.60;;;0.28;;
10633;SDS011;5365;51.640;8.106;2024-03-02T08:10:53;2.88;;;0.47;;
10633;SDS011;5365;51.640;8.106;2024-03-02T08:13:54;0.57;;;0.30;;
10633;SDS011;5365;51.640;8.106;2024-03-02T08:26:59;0.88;;;0.80;;
10633;SDS011;5365;51.640;8.106;2024-03-02T08:30:01;0.68;;;0.40;;
10633;SDS011;5365;51.640;8.106;2024-03-02T08:33:05;1.35;;;0.70;;
10633;SDS011;5365;51.640;8.106;2024-03-02T08:51:03;0.05;;;0.05;;
10633;SDS011;5365;51.640;8.106;2024-03-02T08:54:08;0.75;;;0.57;;
10633;SDS011;5365;51.640;8.106;2024-03-02T08:57:09;1.30;;;0.50;;
10633;SDS011;5365;51.640;8.106;2024-03-02T09:00:11;0.47;;;0.32;;
10633;SDS011;5365;51.640;8.106;2024-03-02T09:23:20;1.23;;;0.50;;
10633;SDS011;5365;51.640;8.106;2024-03-02T09:29:48;1.23;;;0.47;;
10633;SDS011;5365;51.640;8.106;2024-03-02T09:32:50;1.10;;;0.47;;
10633;SDS011;5365;51.640;8.106;2024-03-02T09:40:52;1.27;;;0.47;;
10633;SDS011;5365;51.640;8.106;2024-03-02T09:43:54;0.77;;;0.32;;
10633;SDS011;5365;51.640;8.106;2024-03-02T09:46:55;0.50;;;0.22;;
10633;SDS011;5365;51.640;8.106;2024-03-02T09:49:57;0.68;;;0.15;;
10633;SDS011;5365;51.640;8.106;2024-03-02T09:52:59;1.08;;;0.43;;
10633;SDS011;5365;51.640;8.106;2024-03-02T09:56:00;0.90;;;0.35;;
10633;SDS011;5365;51.640;8.106;2024-03-02T10:04:03;0.63;;;0.45;;
10633;SDS011;5365;51.640;8.106;2024-03-02T10:07:09;1.33;;;0.47;;
10633;SDS011;5365;51.640;8.106;2024-03-02T10:10:14;1.38;;;0.40;;
10633;SDS011;5365;51.640;8.106;2024-03-02T10:13:16;1.90;;;0.52;;
10633;SDS011;5365;51.640;8.106;2024-03-02T10:16:19;1.00;;;0.57;;
10633;SDS011;5365;51.640;8.106;2024-03-02T10:24:20;0.77;;;0.20;;
10633;SDS011;5365;51.640;8.106;2024-03-02T10:27:29;0.45;;;0.10;;
10633;SDS011;5365;51.640;8.106;2024-03-02T10:40:27;0.20;;;0.10;;
10633;SDS011;5365;51.640;8.106;2024-03-02T10:43:28;0.70;;;0.20;;
10633;SDS011;5365;51.640;8.106;2024-03-02T10:50:30;0.88;;;0.22;;
10633;SDS011;5365;51.640;8.106;2024-03-02T10:53:32;0.10;;;0.05;;
10633;SDS011;5365;51.640;8.106;2024-03-02T10:56:37;0.35;;;0.10;;
10633;SDS011;5365;51.640;8.106;2024-03-02T11:00:02;0.30;;;0.08;;
10633;SDS011;5365;51.640;8.106;2024-03-02T11:03:04;0.52;;;0.10;;
10633;SDS011;5365;51.640;8.106;2024-03-02T11:36:20;1.73;;;0.50;;
10633;SDS011;5365;51.640;8.106;2024-03-02T11:39:22;0.25;;;0.08;;
10633;SDS011;5365;51.640;8.106;2024-03-02T11:42:24;0.57;;;0.28;;
10633;SDS011;5365;51.640;8.106;2024-03-02T11:45:25;0.45;;;0.10;;
10633;SDS011;5365;51.640;8.106;2024-03-02T11:48:27;0.93;;;0.10;;
10633;SDS011;5365;51.640;8.106;2024-03-02T11:51:32;0.30;;;0.10;;
10633;SDS011;5365;51.640;8.106;2024-03-02T11:54:35;0.35;;;0.10;;
10633;SDS011;5365;51.640;8.106;2024-03-02T11:57:37;0.63;;;0.20;;
10633;SDS011;5365;51.640;8.106;2024-03-02T12:00:39;0.82;;;0.30;;
10633;SDS011;5365;51.640;8.106;2024-03-02T12:03:41;0.47;;;0.13;;
10633;SDS011;5365;51.640;8.106;2024-03-02T12:06:42;0.28;;;0.10;;
10633;SDS011;5365;51.640;8.106;2024-03-02T12:09:45;0.80;;;0.25;;
10633;SDS011;5365;51.640;8.106;2024-03-02T12:12:46;0.50;;;0.20;;
10633;SDS011;5365;51.640;8.106;2024-03-02T12:15:53;0.15;;;0.10;;
10633;SDS011;5365;51.640;8.106;2024-03-02T12:18:56;0.60;;;0.15;;
10633;SDS011;5365;51.640;8.106;2024-03-02T12:21:58;0.40;;;0.10;;
10633;SDS011;5365;51.640;8.106;2024-03-02T12:25:00;0.93;;;0.20;;
10633;SDS011;5365;51.640;8.106;2024-03-02T12:28:02;0.22;;;0.10;;
10633;SDS011;5365;51.640;8.106;2024-03-02T12:31:04;0.35;;;0.13;;
10633;SDS011;5365;51.640;8.106;2024-03-02T12:34:06;0.88;;;0.25;;
10633;SDS011;5365;51.640;8.106;2024-03-02T12:37:08;0.75;;;0.30;;
10633;SDS011;5365;51.640;8.106;2024-03-02T12:40:13;0.45;;;0.20;;
10633;SDS011;5365;51.640;8.106;2024-03-02T12:43:15;0.25;;;0.17;;
10633;SDS011;5365;51.640;8.106;2024-03-02T12:46:17;0.73;;;0.20;;
10633;SDS011;5365;51.640;8.106;2024-03-02T12:49:21;0.60;;;0.20;;
10633;SDS011;5365;51.640;8.106;2024-03-02T12:52:23;0.55;;;0.10;;
10633;SDS011;5365;51.640;8.106;2024-03-02T12:55:25;1.60;;;0.30;;
10633;SDS011;5365;51.640;8.106;2024-03-02T12:58:26;2.25;;;0.30;;
10633;SDS011;5365;51.640;8.106;2024-03-02T13:01:29;0.73;;;0.30;;
10633;SDS011;5365;51.640;8.106;2024-03-02T13:04:30;0.50;;;0.28;;
10633;SDS011;5365;51.640;8.106;2024-03-02T13:07:32;0.20;;;0.10;;
10633;SDS011;5365;51.640;8.106;2024-03-02T13:10:35;0.00;;;0.00;;
10633;SDS011;5365;51.640;8.106;2024-03-02T13:13:38;0.08;;;0.00;;
10633;SDS011;5365;51.640;8.106;2024-03-02T13:16:40;0.50;;;0.25;;
10633;SDS011;5365;51.640;8.106;2024-03-02T13:19:51;0.20;;;0.10;;
10633;SDS011;5365;51.640;8.106;2024-03-02T13:22:54;1.70;;;0.22;;
10633;SDS011;5365;51.640;8.106;2024-03-02T13:25:56;0.60;;;0.20;;
10633;SDS011;5365;51.640;8.106;2024-03-02T13:28:59;0.98;;;0.20;;
10633;SDS011;5365;51.640;8.106;2024-03-02T13:32:01;0.25;;;0.10;;
10633;SDS011;5365;51.640;8.106;2024-03-02T13:35:03;0.55;;;0.20;;
10633;SDS011;5365;51.640;8.106;2024-03-02T13:38:04;0.35;;;0.20;;
10633;SDS011;5365;51.640;8.106;2024-03-02T13:41:06;0.40;;;0.20;;
10633;SDS011;5365;51.640;8.106;2024-03-02T13:44:08;0.50;;;0.43;;
10633;SDS011;5365;51.640;8.106;2024-03-02T13:47:09;0.40;;;0.20;;
10633;SDS011;5365;51.640;8.106;2024-03-02T13:50:11;0.65;;;0.25;;
10633;SDS011;5365;51.640;8.106;2024-03-02T13:53:13;0.50;;;0.20;;
10633;SDS011;5365;51.640;8.106;2024-03-02T13:56:14;0.93;;;0.20;;
10633;SDS011;5365;51.640;8.106;2024-03-02T13:59:16;0.52;;;0.28;;
10633;SDS011;5365;51.640;8.106;2024-03-02T14:02:18;0.70;;;0.30;;
10633;SDS011;5365;51.640;8.106;2024-03-02T14:05:20;0.95;;;0.10;;
10633;SDS011;5365;51.640;8.106;2024-03-02T14:08:21;0.40;;;0.20;;
10633;SDS011;5365;51.640;8.106;2024-03-02T14:11:23;1.13;;;0.30;;
10633;SDS011;5365;51.640;8.106;2024-03-02T14:14:25;0.63;;;0.20;;
10633;SDS011;5365;51.640;8.106;2024-03-02T14:17:26;0.95;;;0.38;;
10633;SDS011;5365;51.640;8.106;2024-03-02T14:20:28;0.47;;;0.17;;
10633;SDS011;5365;51.640;8.106;2024-03-02T14:23:30;0.90;;;0.30;;
10633;SDS011;5365;51.640;8.106;2024-03-02T14:26:31;0.63;;;0.20;;
10633;SDS011;5365;51.640;8.106;2024-03-02T14:29:34;0.32;;;0.10;;
10633;SDS011;5365;51.640;8.106;2024-03-02T14:32:38;0.45;;;0.20;;
10633;SDS011;5365;51.640;8.106;2024-03-02T14:35:40;0.50;;;0.20;;
10633;SDS011;5365;51.640;8.106;2024-03-02T14:38:42;0.63;;;0.30;;
10633;SDS011;5365;51.640;8.106;2024-03-02T14:41:44;0.60;;;0.22;;
10633;SDS011;5365;51.640;8.106;2024-03-02T14:44:45;1.52;;;0.52;;
10633;SDS011;5365;51.640;8.106;2024-03-02T14:47:47;1.20;;;0.30;;
10633;SDS011;5365;51.640;8.106;2024-03-02T14:50:49;1.08;;;0.20;;
10633;SDS011;5365;51.640;8.106;2024-03-02T14:53:50;2.03;;;0.38;;
10633;SDS011;5365;51.640;8.106;2024-03-02T14:56:52;1.13;;;0.40;;
10633;SDS011;5365;51.640;8.106;2024-03-02T14:59:54;0.65;;;0.10;;
10633;SDS011;5365;51.640;8.106;2024-03-02T15:02:56;0.82;;;0.20;;
10633;SDS011;5365;51.640;8.106;2024-03-02T15:05:58;1.23;;;0.40;;
10633;SDS011;5365;51.640;8.106;2024-03-02T15:09:00;0.60;;;0.20;;
10633;SDS011;5365;51.640;8.106;2024-03-02T15:12:03;0.73;;;0.43;;
10633;SDS011;5365;51.640;8.106;2024-03-02T15:15:05;1.23;;;0.45;;
10633;SDS011;5365;51.640;8.106;2024-03-02T15:18:08;0.73;;;0.20;;
10633;SDS011;5365;51.640;8.106;2024-03-02T15:21:10;0.77;;;0.47;;
10633;SDS011;5365;51.640;8.106;2024-03-02T15:24:12;1.15;;;0.40;;
10633;SDS011;5365;51.640;8.106;2024-03-02T15:27:13;1.92;;;0.40;;
10633;SDS011;5365;51.640;8.106;2024-03-02T15:30:15;1.08;;;0.40;;
10633;SDS011;5365;51.640;8.106;2024-03-02T15:33:17;0.95;;;0.50;;
10633;SDS011;5365;51.640;8.106;2024-03-02T15:36:19;0.82;;;0.40;;
10633;SDS011;5365;51.640;8.106;2024-03-02T15:43:55;2.05;;;0.80;;
10633;SDS011;5365;51.640;8.106;2024-03-02T15:46:57;2.00;;;0.45;;
10633;SDS011;5365;51.640;8.106;2024-03-02T15:49:59;0.90;;;0.30;;
10633;SDS011;5365;51.640;8.106;2024-03-02T15:53:01;1.10;;;0.60;;
10633;SDS011;5365;51.640;8.106;2024-03-02T15:56:05;1.58;;;0.70;;
10633;SDS011;5365;51.640;8.106;2024-03-02T15:59:08;1.63;;;0.70;;
10633;SDS011;5365;51.640;8.106;2024-03-02T16:02:10;1.95;;;0.40;;
10633;SDS011;5365;51.640;8.106;2024-03-02T16:05:12;3.17;;;0.73;;
10633;SDS011;5365;51.640;8.106;2024-03-02T16:08:14;1.02;;;0.47;;
10633;SDS011;5365;51.640;8.106;2024-03-02T16:11:16;2.35;;;0.63;;
10633;SDS011;5365;51.640;8.106;2024-03-02T16:14:18;2.00;;;0.68;;
10633;SDS011;5365;51.640;8.106;2024-03-02T16:17:19;1.63;;;0.70;;
10633;SDS011;5365;51.640;8.106;2024-03-02T16:20:21;1.95;;;0.68;;
10633;SDS011;5365;51.640;8.106;2024-03-02T16:23:22;0.90;;;0.40;;
10633;SDS011;5365;51.640;8.106;2024-03-02T16:26:25;0.80;;;0.60;;
10633;SDS011;5365;51.640;8.106;2024-03-02T16:29:26;1.30;;;0.40;;
10633;SDS011;5365;51.640;8.106;2024-03-02T16:32:28;1.92;;;0.77;;
10633;SDS011;5365;51.640;8.106;2024-03-02T16:35:30;2.97;;;0.70;;
10633;SDS011;5365;51.640;8.106;2024-03-02T16:38:31;0.77;;;0.50;;
10633;SDS011;5365;51.640;8.106;2024-03-02T16:41:33;1.17;;;0.68;;
10633;SDS011;5365;51.640;8.106;2024-03-02T16:44:35;1.20;;;0.90;;
10633;SDS011;5365;51.640;8.106;2024-03-02T16:47:36;0.80;;;0.35;;
10633;SDS011;5365;51.640;8.106;2024-03-02T16:50:38;2.97;;;0.40;;
10633;SDS011;5365;51.640;8.106;2024-03-02T16:53:40;1.00;;;0.30;;
10633;SDS011;5365;51.640;8.106;2024-03-02T16:56:42;2.35;;;0.77;;
10633;SDS011;5365;51.640;8.106;2024-03-02T16:59:44;0.30;;;0.10;;
10633;SDS011;5365;51.640;8.106;2024-03-02T17:02:46;0.70;;;0.40;;
10633;SDS011;5365;51.640;8.106;2024-03-02T17:05:47;0.63;;;0.30;;
10633;SDS011;5365;51.640;8.106;2024-03-02T17:08:49;1.20;;;0.57;;
10633;SDS011;5365;51.640;8.106;2024-03-02T17:11:51;0.63;;;0.30;;
10633;SDS011;5365;51.640;8.106;2024-03-02T17:14:52;0.40;;;0.15;;
10633;SDS011;5365;51.640;8.106;2024-03-02T17:17:54;0.65;;;0.20;;
10633;SDS011;5365;51.640;8.106;2024-03-02T17:20:55;0.82;;;0.43;;
10633;SDS011;5365;51.640;8.106;2024-03-02T17:23:57;0.40;;;0.35;;
10633;SDS011;5365;51.640;8.106;2024-03-02T17:26:59;0.45;;;0.20;;
10633;SDS011;5365;51.640;8.106;2024-03-02T17:30:01;0.52;;;0.32;;
10633;SDS011;5365;51.640;8.106;2024-03-02T17:33:02;2.13;;;0.50;;
10633;SDS011;5365;51.640;8.106;2024-03-02T17:36:04;0.30;;;0.20;;
10633;SDS011;5365;51.640;8.106;2024-03-02T17:39:06;0.60;;;0.25;;
10633;SDS011;5365;51.640;8.106;2024-03-02T17:42:08;0.32;;;0.20;;
10633;SDS011;5365;51.640;8.106;2024-03-02T17:45:09;0.50;;;0.20;;
10633;SDS011;5365;51.640;8.106;2024-03-02T17:48:11;0.70;;;0.40;;
10633;SDS011;5365;51.640;8.106;2024-03-02T17:51:13;0.50;;;0.22;;
10633;SDS011;5365;51.640;8.106;2024-03-02T17:54:15;1.23;;;0.50;;
10633;SDS011;5365;51.640;8.106;2024-03-02T17:57:16;1.10;;;0.60;;
10633;SDS011;5365;51.640;8.106;2024-03-02T18:00:18;1.35;;;0.50;;
10633;SDS011;5365;51.640;8.106;2024-03-02T18:03:22;2.70;;;0.60;;
10633;SDS011;5365;51.640;8.106;2024-03-02T18:06:23;2.13;;;0.40;;
10633;SDS011;5365;51.640;8.106;2024-03-02T18:09:25;0.65;;;0.28;;
10633;SDS011;5365;51.640;8.106;2024-03-02T18:12:27;0.63;;;0.40;;
10633;SDS011;5365;51.640;8.106;2024-03-02T18:15:29;0.20;;;0.10;;
10633;SDS011;5365;51.640;8.106;2024-03-02T18:18:30;0.93;;;0.30;;
10633;SDS011;5365;51.640;8.106;2024-03-02T18:21:32;0.45;;;0.17;;
10633;SDS011;5365;51.640;8.106;2024-03-02T18:24:34;0.95;;;0.28;;
10633;SDS011;5365;51.640;8.106;2024-03-02T18:27:37;2.15;;;1.00;;
10633;SDS011;5365;51.640;8.106;2024-03-02T18:30:39;0.32;;;0.30;;
10633;SDS011;5365;51.640;8.106;2024-03-02T18:33:41;0.20;;;0.20;;
10633;SDS011;5365;51.640;8.106;2024-03-02T18:36:43;0.68;;;0.68;;
10633;SDS011;5365;51.640;8.106;2024-03-02T18:39:44;1.52;;;0.70;;
10633;SDS011;5365;51.640;8.106;2024-03-02T18:42:47;4.47;;;0.68;;
10633;SDS011;5365;51.640;8.106;2024-03-02T18:45:51;0.63;;;0.40;;
10633;SDS011;5365;51.640;8.106;2024-03-02T18:51:58;0.40;;;0.30;;
10633;SDS011;5365;51.640;8.106;2024-03-02T18:55:00;1.42;;;0.70;;
10633;SDS011;5365;51.640;8.106;2024-03-02T18:58:04;1.48;;;1.00;;
10633;SDS011;5365;51.640;8.106;2024-03-02T19:01:05;1.77;;;0.70;;
10633;SDS011;5365;51.640;8.106;2024-03-02T19:04:07;2.08;;;1.08;;
10633;SDS011;5365;51.640;8.106;2024-03-02T19:07:11;1.00;;;0.55;;
10633;SDS011;5365;51.640;8.106;2024-03-02T19:10:14;0.95;;;0.73;;
10633;SDS011;5365;51.640;8.106;2024-03-02T19:13:16;1.45;;;0.70;;
10633;SDS011;5365;51.640;8.106;2024-03-02T19:16:18;1.15;;;0.68;;
10633;SDS011;5365;51.640;8.106;2024-03-02T19:19:19;1.63;;;0.80;;
10633;SDS011;5365;51.640;8.106;2024-03-02T19:22:21;2.90;;;1.70;;
10633;SDS011;5365;51.640;8.106;2024-03-02T19:25:25;1.88;;;0.52;;
10633;SDS011;5365;51.640;8.106;2024-03-02T19:28:27;1.50;;;0.80;;
10633;SDS011;5365;51.640;8.106;2024-03-02T19:31:28;1.42;;;0.55;;
10633;SDS011;5365;51.640;8.106;2024-03-02T19:34:30;2.67;;;0.80;;
10633;SDS011;5365;51.640;8.106;2024-03-02T19:37:32;2.20;;;1.00;;
10633;SDS011;5365;51.640;8.106;2024-03-02T19:40:34;3.17;;;1.83;;
10633;SDS011;5365;51.640;8.106;2024-03-02T19:43:36;1.00;;;0.52;;
10633;SDS011;5365;51.640;8.106;2024-03-02T19:46:37;0.50;;;0.32;;
10633;SDS011;5365;51.640;8.106;2024-03-02T19:49:39;1.50;;;0.98;;
10633;SDS011;5365;51.640;8.106;2024-03-02T19:52:41;2.03;;;0.68;;
10633;SDS011;5365;51.640;8.106;2024-03-02T19:55:42;1.95;;;1.38;;
10633;SDS011;5365;51.640;8.106;2024-03-02T19:58:45;3.85;;;1.15;;
10633;SDS011;5365;51.640;8.106;2024-03-02T20:01:47;3.60;;;1.50;;
10633;SDS011;5365;51.640;8.106;2024-03-02T20:04:49;3.08;;;1.30;;
10633;SDS011;5365;51.640;8.106;2024-03-02T20:07:50;2.08;;;0.93;;
10633;SDS011;5365;51.640;8.106;2024-03-02T20:10:52;2.80;;;2.00;;
10633;SDS011;5365;51.640;8.106;2024-03-02T20:13:54;2.55;;;1.05;;
10633;SDS011;5365;51.640;8.106;2024-03-02T20:16:55;2.05;;;1.40;;
10633;SDS011;5365;51.640;8.106;2024-03-02T20:19:58;2.78;;;1.38;;
10633;SDS011;5365;51.640;8.106;2024-03-02T20:22:59;2.75;;;1.30;;
10633;SDS011;5365;51.640;8.106;2024-03-02T20:26:01;1.55;;;1.23;;
10633;SDS011;5365;51.640;8.106;2024-03-02T20:29:03;1.88;;;1.33;;
10633;SDS011;5365;51.640;8.106;2024-03-02T20:32:05;4.85;;;1.25;;
10633;SDS011;5365;51.640;8.106;2024-03-02T20:35:08;4.10;;;1.50;;
10633;SDS011;5365;51.640;8.106;2024-03-02T20:38:10;1.80;;;1.08;;
10633;SDS011;5365;51.640;8.106;2024-03-02T20:41:14;3.25;;;1.45;;
10633;SDS011;5365;51.640;8.106;2024-03-02T20:44:17;3.90;;;1.75;;
10633;SDS011;5365;51.640;8.106;2024-03-02T20:47:20;3.53;;;1.10;;
10633;SDS011;5365;51.640;8.106;2024-03-02T20:50:24;9.13;;;2.22;;
10633;SDS011;5365;51.640;8.106;2024-03-02T20:57:14;2.30;;;1.20;;
10633;SDS011;5365;51.640;8.106;2024-03-02T21:00:16;1.48;;;1.02;;
10633;SDS011;5365;51.640;8.106;2024-03-02T21:03:18;4.88;;;2.83;;
10633;SDS011;5365;51.640;8.106;2024-03-02T21:06:19;2.40;;;0.93;;
10633;SDS011;5365;51.640;8.106;2024-03-02T21:09:21;1.85;;;0.90;;
10633;SDS011;5365;51.640;8.106;2024-03-02T21:12:22;3.38;;;1.35;;
10633;SDS011;5365;51.640;8.106;2024-03-02T21:15:24;2.83;;;0.85;;
10633;SDS011;5365;51.640;8.106;2024-03-02T21:18:27;2.15;;;1.10;;
10633;SDS011;5365;51.640;8.106;2024-03-02T21:21:28;2.13;;;1.23;;
10633;SDS011;5365;51.640;8.106;2024-03-02T21:24:30;3.20;;;1.83;;
10633;SDS011;5365;51.640;8.106;2024-03-02T21:27:32;1.95;;;1.08;;
10633;SDS011;5365;51.640;8.106;2024-03-02T21:30:34;1.80;;;1.05;;
10633;SDS011;5365;51.640;8.106;2024-03-02T21:33:36;2.20;;;1.02;;
10633;SDS011;5365;51.640;8.106;2024-03-02T21:36:37;1.88;;;0.88;;
10633;SDS011;5365;51.640;8.106;2024-03-02T21:39:39;3.00;;;1.77;;
10633;SDS011;5365;51.640;8.106;2024-03-02T21:42:43;1.25;;;0.43;;
10633;SDS011;5365;51.640;8.106;2024-03-02T21:45:44;2.42;;;1.85;;
10633;SDS011;5365;51.640;8.106;2024-03-02T21:48:46;0.73;;;0.63;;
10633;SDS011;5365;51.640;8.106;2024-03-02T21:51:52;4.28;;;1.38;;
10633;SDS011;5365;51.640;8.106;2024-03-02T21:54:55;2.60;;;1.10;;
10633;SDS011;5365;51.640;8.106;2024-03-02T22:03:02;1.65;;;1.13;;
10633;SDS011;5365;51.640;8.106;2024-03-02T22:06:04;1.15;;;0.60;;
10633;SDS011;5365;51.640;8.106;2024-03-02T22:09:06;2.90;;;1.65;;
10633;SDS011;5365;51.640;8.106;2024-03-02T22:12:08;1.85;;;0.80;;
10633;SDS011;5365;51.640;8.106;2024-03-02T22:15:09;2.30;;;1.05;;
10633;SDS011;5365;51.640;8.106;2024-03-02T22:18:11;1.17;;;1.08;;
10633;SDS011;5365;51.640;8.106;2024-03-02T22:21:13;2.50;;;1.23;;
10633;SDS011;5365;51.640;8.106;2024-03-02T22:24:15;3.63;;;1.50;;
10633;SDS011;5365;51.640;8.106;2024-03-02T22:27:17;1.77;;;1.33;;
10633;SDS011;5365;51.640;8.106;2024-03-02T22:30:18;2.72;;;1.70;;
10633;SDS011;5365;51.640;8.106;2024-03-02T22:33:20;5.00;;;1.92;;
10633;SDS011;5365;51.640;8.106;2024-03-02T22:36:22;3.28;;;1.85;;
10633;SDS011;5365;51.640;8.106;2024-03-02T22:39:24;3.85;;;1.52;;
10633;SDS011;5365;51.640;8.106;2024-03-02T22:42:26;3.42;;;1.63;;
10633;SDS011;5365;51.640;8.106;2024-03-02T22:45:27;4.95;;;2.35;;
10633;SDS011;5365;51.640;8.106;2024-03-02T22:48:29;1.33;;;0.85;;
10633;SDS011;5365;51.640;8.106;2024-03-02T22:51:32;2.83;;;1.55;;
10633;SDS011;5365;51.640;8.106;2024-03-02T22:54:34;2.17;;;1.02;;
10633;SDS011;5365;51.640;8.106;2024-03-02T22:57:36;1.92;;;1.13;;
10633;SDS011;5365;51.640;8.106;2024-03-02T23:00:38;2.22;;;1.05;;
10633;SDS011;5365;51.640;8.106;2024-03-02T23:03:49;2.70;;;0.82;;
10633;SDS011;5365;51.640;8.106;2024-03-02T23:06:50;2.75;;;1.25;;
10633;SDS011;5365;51.640;8.106;2024-03-02T23:09:52;4.65;;;1.63;;
10633;SDS011;5365;51.640;8.106;2024-03-02T23:12:53;2.05;;;1.60;;
10633;SDS011;5365;51.640;8.106;2024-03-02T23:15:55;1.83;;;1.40;;
10633;SDS011;5365;51.640;8.106;2024-03-02T23:18:59;2.03;;;1.23;;
10633;SDS011;5365;51.640;8.106;2024-03-02T23:22:00;4.20;;;2.10;;
10633;SDS011;5365;51.640;8.106;2024-03-02T23:25:02;2.70;;;1.23;;
10633;SDS011;5365;51.640;8.106;2024-03-02T23:28:04;4.78;;;1.70;;
10633;SDS011;5365;51.640;8.106;2024-03-02T23:31:06;2.53;;;1.75;;
10633;SDS011;5365;51.640;8.106;2024-03-02T23:34:08;2.88;;;2.40;;
10633;SDS011;5365;51.640;8.106;2024-03-02T23:37:10;2.70;;;1.55;;
10633;SDS011;5365;51.640;8.106;2024-03-02T23:40:12;1.95;;;1.38;;
10633;SDS011;5365;51.640;8.106;2024-03-02T23:43:16;6.20;;;2.40;;
10633;SDS011;5365;51.640;8.106;2024-03-02T23:46:18;1.52;;;0.85;;
10633;SDS011;5365;51.640;8.106;2024-03-02T23:49:19;3.03;;;1.05;;
10633;SDS011;5365;51.640;8.106;2024-03-02T23:52:21;2.92;;;1.83;;
10633;SDS011;5365;51.640;8.106;2024-03-02T23:55:23;2.78;;;1.88;;
10633;SDS011;5365;51.640;8.106;2024-03-02T23:58:26;2.70;;;1.02;;
